Time;durP1;ratioP1;P1;durP2;ratioP2;P2;SDS_P1;SDS_P2;PMS_P1;PMS_P2;Temp;Humidity;BMP_temperature;BMP_pressure;BME280_temperature;BME280_humidity;BME280_pressure;Samples;Min_cycle;Max_cycle;Signal;HPM_P1;HPM_P2
2021/07/09 00:01:53;;;;;;;1.10;1.00;;;28.40;74.00;;;;;;5054576;28;20056;-76
2021/07/09 00:04:23;;;;;;;2.05;1.83;;;28.40;73.90;;;;;;5054758;28;20032;-77
2021/07/09 00:06:50;;;;;;;1.55;1.05;;;28.40;73.80;;;;;;5054710;28;20477;-76
2021/07/09 00:09:17;;;;;;;1.20;1.10;;;28.40;73.90;;;;;;5054507;28;20033;-75
2021/07/09 00:11:47;;;;;;;0.70;0.70;;;28.30;74.00;;;;;;5054542;28;20033;-77
2021/07/09 00:14:15;;;;;;;0.75;0.75;;;28.30;74.20;;;;;;5054422;28;20443;-75
2021/07/09 00:16:41;;;;;;;1.52;1.25;;;28.30;74.10;;;;;;5054955;28;20108;-74
2021/07/09 00:19:08;;;;;;;1.10;1.00;;;28.40;74.30;;;;;;5054475;28;20037;-74
2021/07/09 00:21:35;;;;;;;0.50;0.50;;;28.40;74.40;;;;;;5054244;28;20076;-76
2021/07/09 00:24:03;;;;;;;0.50;0.50;;;28.40;74.40;;;;;;5054059;28;20037;-77
2021/07/09 00:26:29;;;;;;;0.98;0.85;;;28.40;74.40;;;;;;5054508;28;20037;-76
2021/07/09 00:28:57;;;;;;;0.90;0.90;;;28.40;74.40;;;;;;5054373;28;20028;-76
2021/07/09 00:31:24;;;;;;;0.70;0.70;;;28.40;74.50;;;;;;5054624;28;20468;-77
2021/07/09 00:33:49;;;;;;;0.77;0.60;;;28.40;74.50;;;;;;5054105;28;20532;-76
2021/07/09 00:36:16;;;;;;;2.38;1.23;;;28.30;75.30;;;;;;5054544;28;20162;-79
2021/07/09 00:38:41;;;;;;;0.70;0.70;;;28.20;75.40;;;;;;5053901;28;20075;-78
2021/07/09 00:41:07;;;;;;;0.68;0.68;;;28.10;76.30;;;;;;5054273;28;20076;-77
2021/07/09 00:43:33;;;;;;;0.73;0.73;;;28.00;76.60;;;;;;5053881;28;20090;-76
2021/07/09 00:45:59;;;;;;;0.63;0.63;;;28.10;76.50;;;;;;5054142;28;20079;-77
2021/07/09 00:48:28;;;;;;;1.35;0.98;;;27.90;77.10;;;;;;5054066;28;20108;-77
2021/07/09 00:50:56;;;;;;;0.80;0.80;;;27.90;76.50;;;;;;5058994;28;20040;-77
2021/07/09 00:53:22;;;;;;;0.80;0.80;;;27.90;76.80;;;;;;5073250;28;20550;-77
2021/07/09 00:55:48;;;;;;;2.47;1.10;;;27.80;77.20;;;;;;5073884;28;20076;-77
2021/07/09 00:58:14;;;;;;;0.95;0.93;;;27.90;77.30;;;;;;5073624;28;20036;-77
2021/07/09 01:00:40;;;;;;;0.65;0.63;;;27.90;77.20;;;;;;5055665;28;20072;-76
2021/07/09 01:03:07;;;;;;;0.95;0.93;;;27.70;77.50;;;;;;5073343;28;20063;-76
2021/07/09 01:05:35;;;;;;;0.80;0.77;;;27.70;77.90;;;;;;5073924;28;20031;-76
2021/07/09 01:08:03;;;;;;;0.75;0.75;;;27.70;77.70;;;;;;5073077;28;20033;-76
2021/07/09 01:10:29;;;;;;;7.93;1.67;;;27.30;77.90;;;;;;5073634;28;20052;-77
2021/07/09 01:12:55;;;;;;;1.33;1.13;;;27.40;79.00;;;;;;5073467;28;20081;-74
2021/07/09 01:15:22;;;;;;;0.98;0.98;;;27.40;78.80;;;;;;5055596;28;20078;-75
2021/07/09 01:17:49;;;;;;;0.57;0.57;;;27.40;78.80;;;;;;5073364;28;20393;-76
2021/07/09 01:20:18;;;;;;;0.70;0.70;;;27.40;79.20;;;;;;5073424;28;20064;-76
2021/07/09 01:22:46;;;;;;;1.63;1.33;;;27.30;79.40;;;;;;5055183;28;20040;-81
2021/07/09 01:25:21;;;;;;;1.77;1.10;;;27.40;79.50;;;;;;5073415;28;20493;-77
2021/07/09 01:27:50;;;;;;;1.42;1.33;;;27.40;79.20;;;;;;5073068;28;20381;-77
2021/07/09 01:30:24;;;;;;;0.50;0.50;;;27.50;79.40;;;;;;5073285;28;20060;-76
2021/07/09 01:32:51;;;;;;;0.80;0.80;;;27.40;79.50;;;;;;5073224;28;20086;-76
2021/07/09 01:35:19;;;;;;;1.42;0.95;;;27.50;79.40;;;;;;5073273;28;20036;-76
2021/07/09 01:38:00;;;;;;;0.88;0.88;;;27.40;79.20;;;;;;5072823;28;20090;-79
2021/07/09 01:40:28;;;;;;;1.20;1.10;;;27.30;79.30;;;;;;5073097;28;20103;-73
2021/07/09 01:42:54;;;;;;;0.57;0.57;;;27.30;79.90;;;;;;5054808;28;20033;-76
2021/07/09 01:45:20;;;;;;;0.82;0.82;;;27.20;80.10;;;;;;5073181;28;20029;-76
2021/07/09 01:47:46;;;;;;;0.85;0.82;;;27.20;79.50;;;;;;5072898;28;20420;-74
2021/07/09 01:50:13;;;;;;;1.35;1.25;;;27.00;80.30;;;;;;5072562;28;20115;-76
2021/07/09 01:52:40;;;;;;;1.35;1.25;;;27.00;80.10;;;;;;5054644;28;20802;-77
2021/07/09 01:55:07;;;;;;;1.25;0.93;;;26.80;80.50;;;;;;5052878;28;20076;-75
2021/07/09 01:57:33;;;;;;;8.60;2.30;;;27.00;80.70;;;;;;5052677;28;20037;-78
2021/07/09 01:59:59;;;;;;;1.50;1.40;;;26.90;81.20;;;;;;5052752;28;20090;-77
2021/07/09 02:02:25;;;;;;;1.45;1.35;;;27.00;80.70;;;;;;5052569;28;20045;-78
2021/07/09 02:04:54;;;;;;;1.75;1.65;;;27.00;80.50;;;;;;5052674;28;20098;-79
2021/07/09 02:07:21;;;;;;;0.75;0.75;;;26.80;80.00;;;;;;5052580;28;20381;-76
2021/07/09 02:09:50;;;;;;;1.00;0.93;;;26.60;80.10;;;;;;5051756;28;20087;-77
2021/07/09 02:12:18;;;;;;;1.23;1.13;;;26.60;80.80;;;;;;5052558;28;20064;-76
2021/07/09 02:14:44;;;;;;;1.00;0.95;;;26.70;81.10;;;;;;5052334;28;20033;-75
2021/07/09 02:17:13;;;;;;;1.65;1.55;;;26.60;80.30;;;;;;5052699;28;20083;-75
2021/07/09 02:19:39;;;;;;;1.67;1.58;;;26.00;82.40;;;;;;5051972;28;20419;-75
2021/07/09 02:22:08;;;;;;;1.15;1.05;;;26.40;82.10;;;;;;5052162;28;20548;-77
2021/07/09 02:24:34;;;;;;;1.10;1.00;;;26.70;81.60;;;;;;5052410;28;20041;-76
2021/07/09 02:27:03;;;;;;;0.80;0.80;;;26.90;81.60;;;;;;5052189;28;20120;-76
2021/07/09 02:29:30;;;;;;;0.80;0.80;;;26.90;81.10;;;;;;5052165;28;20650;-77
2021/07/09 02:31:58;;;;;;;0.70;0.70;;;26.90;81.40;;;;;;5034578;28;20037;-79
2021/07/09 02:34:23;;;;;;;1.73;1.63;;;27.00;81.60;;;;;;5051885;28;20098;-79
2021/07/09 02:36:49;;;;;;;1.00;0.90;;;27.00;82.20;;;;;;5051930;28;20033;-80
2021/07/09 02:39:15;;;;;;;1.33;1.23;;;26.80;82.50;;;;;;5034323;28;20466;-78
2021/07/09 02:41:40;;;;;;;0.80;0.80;;;26.70;82.60;;;;;;5051888;28;20059;-78
2021/07/09 02:44:06;;;;;;;0.75;0.75;;;26.70;83.30;;;;;;5034060;28;20477;-77
2021/07/09 02:46:32;;;;;;;1.20;1.10;;;26.70;83.30;;;;;;5051779;28;20078;-78
2021/07/09 02:48:58;;;;;;;0.80;0.80;;;26.60;83.30;;;;;;5051132;28;20052;-76
2021/07/09 02:51:23;;;;;;;0.82;0.82;;;26.60;83.70;;;;;;5057966;28;20036;-78
2021/07/09 02:53:49;;;;;;;0.80;0.80;;;26.50;83.80;;;;;;5071953;28;20502;-78
2021/07/09 02:56:15;;;;;;;1.20;1.10;;;26.50;84.10;;;;;;5071606;28;20396;-78
2021/07/09 02:58:41;;;;;;;1.50;1.17;;;26.50;84.30;;;;;;5071360;28;20036;-79
2021/07/09 03:01:06;;;;;;;1.88;1.13;;;26.30;84.50;;;;;;5071767;28;20550;-75
2021/07/09 03:03:32;;;;;;;1.05;0.95;;;26.20;84.90;;;;;;5053572;28;20037;-76
2021/07/09 03:05:58;;;;;;;1.15;1.08;;;26.20;85.50;;;;;;5071548;28;20380;-77
2021/07/09 03:08:24;;;;;;;3.22;1.30;;;26.10;85.20;;;;;;5071123;28;20090;-77
2021/07/09 03:10:49;;;;;;;0.60;0.60;;;26.10;85.60;;;;;;5071795;28;20028;-79
2021/07/09 03:13:15;;;;;;;0.95;0.95;;;26.20;85.70;;;;;;5071184;28;20043;-75
2021/07/09 03:15:41;;;;;;;0.73;0.73;;;26.20;85.50;;;;;;5071675;28;20094;-75
2021/07/09 03:18:07;;;;;;;0.50;0.50;;;26.30;85.70;;;;;;5053231;28;20120;-77
2021/07/09 03:20:32;;;;;;;0.93;0.93;;;26.40;85.70;;;;;;5070193;28;20044;-76
2021/07/09 03:22:58;;;;;;;0.82;0.82;;;26.10;86.20;;;;;;5053065;28;20040;-74
2021/07/09 03:25:24;;;;;;;2.55;1.85;;;26.20;86.20;;;;;;5071248;28;20032;-76
2021/07/09 03:27:50;;;;;;;0.85;0.85;;;26.30;86.30;;;;;;5070848;28;20033;-77
2021/07/09 03:30:16;;;;;;;0.70;0.70;;;26.20;86.40;;;;;;5071387;28;20089;-75
2021/07/09 03:32:42;;;;;;;1.48;1.38;;;26.00;86.90;;;;;;5071577;28;20032;-76
2021/07/09 03:35:08;;;;;;;0.95;0.85;;;26.00;87.20;;;;;;5071496;28;20079;-76
2021/07/09 03:37:35;;;;;;;1.27;1.10;;;26.10;87.20;;;;;;5070688;28;20032;-77
2021/07/09 03:40:01;;;;;;;0.75;0.75;;;26.00;87.90;;;;;;5071274;28;20119;-78
2021/07/09 03:42:26;;;;;;;0.60;0.60;;;25.90;87.90;;;;;;5071367;28;20186;-77
2021/07/09 03:44:52;;;;;;;1.48;1.38;;;26.00;88.10;;;;;;5053019;28;20083;-76
2021/07/09 03:47:18;;;;;;;1.10;0.95;;;26.20;87.50;;;;;;5071185;28;20567;-74
2021/07/09 03:49:44;;;;;;;1.42;1.33;;;26.30;87.40;;;;;;5070875;28;20025;-76
2021/07/09 03:52:09;;;;;;;0.77;0.77;;;26.40;86.90;;;;;;5060153;28;20033;-76
2021/07/09 03:54:35;;;;;;;0.73;0.73;;;26.50;87.20;;;;;;5033081;28;20048;-79
2021/07/09 03:57:03;;;;;;;0.70;0.70;;;26.50;87.70;;;;;;5050965;28;20131;-76
2021/07/09 03:59:28;;;;;;;1.00;1.00;;;26.50;88.20;;;;;;5050706;28;20072;-74
2021/07/09 04:01:54;;;;;;;0.60;0.60;;;26.50;87.80;;;;;;5050724;28;20530;-77
2021/07/09 04:04:20;;;;;;;1.05;1.02;;;26.50;88.00;;;;;;5051188;28;20036;-77
2021/07/09 04:06:46;;;;;;;0.50;0.50;;;26.60;88.80;;;;;;5050802;28;20393;-76
2021/07/09 04:09:11;;;;;;;1.02;0.98;;;26.40;88.80;;;;;;5050923;28;20408;-75
2021/07/09 04:11:37;;;;;;;1.17;1.00;;;26.60;88.90;;;;;;5051002;28;20506;-75
2021/07/09 04:14:03;;;;;;;1.33;1.23;;;26.60;89.50;;;;;;5050857;28;20029;-77
2021/07/09 04:16:29;;;;;;;1.85;0.90;;;26.60;88.40;;;;;;5050773;28;20112;-76
2021/07/09 04:18:55;;;;;;;1.25;1.15;;;26.50;88.20;;;;;;5050662;28;20175;-76
2021/07/09 04:21:20;;;;;;;3.40;0.95;;;26.40;88.00;;;;;;5050862;28;20388;-77
2021/07/09 04:23:47;;;;;;;1.40;1.30;;;26.40;87.80;;;;;;5050516;28;20040;-77
2021/07/09 04:26:13;;;;;;;1.02;0.98;;;26.40;87.20;;;;;;5050578;28;20041;-77
2021/07/09 04:28:39;;;;;;;0.73;0.73;;;26.50;87.20;;;;;;5032935;28;20041;-79
2021/07/09 04:31:05;;;;;;;0.70;0.70;;;26.40;87.20;;;;;;5050347;28;20037;-77
2021/07/09 04:33:31;;;;;;;1.50;1.20;;;26.60;86.40;;;;;;5053513;28;20044;-77
2021/07/09 04:35:57;;;;;;;1.05;0.95;;;26.60;86.20;;;;;;5054305;28;20040;-78
2021/07/09 04:38:22;;;;;;;0.55;0.55;;;26.70;86.30;;;;;;5054353;28;20472;-77
2021/07/09 04:40:48;;;;;;;10.85;1.15;;;26.20;87.20;;;;;;5053823;28;20124;-78
2021/07/09 04:43:14;;;;;;;0.80;0.80;;;26.50;86.70;;;;;;5054115;28;20025;-77
2021/07/09 04:45:40;;;;;;;1.30;0.80;;;26.70;86.30;;;;;;5054110;28;20037;-77
2021/07/09 04:48:07;;;;;;;4.40;3.22;;;26.90;86.10;;;;;;5053635;28;20025;-76
2021/07/09 04:50:33;;;;;;;8.38;6.75;;;26.90;87.00;;;;;;5053636;28;20037;-76
2021/07/09 04:52:59;;;;;;;4.18;2.95;;;26.90;87.30;;;;;;5051892;28;20116;-75
2021/07/09 04:55:24;;;;;;;1.48;1.38;;;26.80;87.90;;;;;;5073737;28;20124;-76
2021/07/09 04:57:50;;;;;;;1.33;1.23;;;26.60;88.20;;;;;;5073909;28;20463;-76
2021/07/09 05:00:16;;;;;;;1.85;1.75;;;26.60;88.60;;;;;;5073312;28;20037;-76
2021/07/09 05:02:42;;;;;;;1.15;1.05;;;26.60;88.80;;;;;;5073394;28;20036;-76
2021/07/09 05:05:11;;;;;;;1.60;1.13;;;26.60;89.00;;;;;;5073746;28;20025;-77
2021/07/09 05:07:37;;;;;;;1.58;1.25;;;26.60;89.00;;;;;;5073660;28;20366;-76
2021/07/09 05:10:06;;;;;;;0.80;0.80;;;26.70;88.80;;;;;;5073756;28;20480;-76
2021/07/09 05:12:32;;;;;;;1.65;1.48;;;26.60;89.30;;;;;;5073313;28;20102;-76
2021/07/09 05:14:58;;;;;;;1.70;1.27;;;26.70;89.90;;;;;;5073460;28;20037;-77
2021/07/09 05:17:24;;;;;;;1.52;1.42;;;26.80;89.40;;;;;;5073469;28;20036;-77
2021/07/09 05:19:52;;;;;;;1.25;0.93;;;26.70;89.60;;;;;;5073421;28;20536;-76
2021/07/09 05:22:22;;;;;;;2.35;0.93;;;26.70;90.20;;;;;;5073120;28;20036;-76
2021/07/09 05:24:54;;;;;;;1.90;1.20;;;26.90;90.30;;;;;;5055392;28;20036;-74
2021/07/09 05:27:22;;;;;;;0.90;0.85;;;26.90;90.60;;;;;;5073215;28;20159;-76
2021/07/09 05:29:48;;;;;;;1.15;1.08;;;27.10;90.70;;;;;;5072843;28;20060;-78
2021/07/09 05:32:21;;;;;;;1.00;0.90;;;27.10;90.30;;;;;;5072967;28;20082;-75
2021/07/09 05:34:47;;;;;;;1.13;1.02;;;27.10;89.90;;;;;;5073142;28;20388;-77
2021/07/09 05:37:12;;;;;;;0.80;0.80;;;27.20;89.80;;;;;;5072819;28;20476;-76
2021/07/09 05:39:38;;;;;;;2.67;1.95;;;26.90;88.90;;;;;;5072995;28;20045;-76
2021/07/09 05:42:04;;;;;;;11.20;5.85;;;26.80;89.30;;;;;;5055067;28;20078;-77
2021/07/09 05:44:30;;;;;;;7.20;6.35;;;27.00;90.10;;;;;;5071887;28;20025;-76
2021/07/09 05:46:57;;;;;;;5.05;3.38;;;27.20;90.10;;;;;;5072566;28;20035;-75
2021/07/09 05:49:23;;;;;;;1.92;1.75;;;27.20;88.10;;;;;;5072851;28;20035;-74
2021/07/09 05:51:49;;;;;;;3.45;2.05;;;27.40;89.70;;;;;;5067725;28;20021;-75
2021/07/09 05:54:15;;;;;;;2.60;2.10;;;27.50;88.70;;;;;;5022586;28;20388;-75
2021/07/09 05:56:41;;;;;;;1.40;1.30;;;27.40;88.10;;;;;;5051441;28;20102;-76
2021/07/09 05:59:07;;;;;;;1.17;1.08;;;27.50;87.90;;;;;;5043041;28;20033;-75
2021/07/09 06:01:33;;;;;;;1.27;1.17;;;27.50;88.60;;;;;;5033848;28;20110;-77
2021/07/09 06:03:59;;;;;;;0.88;0.80;;;27.40;88.00;;;;;;5046733;28;20473;-76
2021/07/09 06:06:25;;;;;;;1.10;0.93;;;27.40;88.00;;;;;;5042704;28;20040;-74
2021/07/09 06:08:51;;;;;;;1.02;0.98;;;27.40;87.30;;;;;;5032811;28;20033;-77
2021/07/09 06:11:16;;;;;;;2.90;2.47;;;27.50;86.30;;;;;;5035896;28;20505;-74
2021/07/09 06:13:42;;;;;;;3.00;2.70;;;27.50;86.40;;;;;;5043633;28;20037;-75
2021/07/09 06:16:08;;;;;;;5.47;3.90;;;27.60;86.60;;;;;;5043482;28;20104;-74
2021/07/09 06:18:34;;;;;;;5.00;2.85;;;27.70;86.00;;;;;;5034447;28;20498;-77
2021/07/09 06:21:00;;;;;;;3.33;1.70;;;27.60;86.30;;;;;;5052406;28;20029;-78
2021/07/09 06:23:27;;;;;;;0.80;0.80;;;27.70;86.40;;;;;;5051765;28;20064;-76
2021/07/09 06:25:54;;;;;;;1.40;1.27;;;27.70;85.60;;;;;;5052226;28;20064;-76
2021/07/09 06:28:20;;;;;;;1.33;1.23;;;27.70;86.00;;;;;;5051975;28;20090;-76
2021/07/09 06:30:46;;;;;;;0.77;0.77;;;27.80;85.80;;;;;;5052206;28;20089;-75
2021/07/09 06:33:12;;;;;;;1.60;1.50;;;27.80;85.30;;;;;;5051618;28;20033;-76
2021/07/09 06:35:39;;;;;;;0.93;0.90;;;27.80;85.40;;;;;;5052208;28;20086;-77
2021/07/09 06:38:06;;;;;;;1.35;1.25;;;27.70;85.50;;;;;;5051971;28;20065;-79
2021/07/09 06:40:32;;;;;;;3.95;1.73;;;27.80;85.80;;;;;;5051470;28;20104;-78
2021/07/09 06:42:59;;;;;;;0.93;0.88;;;27.80;85.50;;;;;;5052334;28;20028;-83
2021/07/09 06:45:25;;;;;;;1.40;1.30;;;27.80;85.40;;;;;;5051904;28;20032;-80
2021/07/09 06:47:51;;;;;;;1.23;1.05;;;27.90;86.20;;;;;;5051977;28;20040;-78
2021/07/09 06:50:18;;;;;;;1.73;1.45;;;27.90;85.70;;;;;;5051791;28;20036;-82
2021/07/09 06:52:44;;;;;;;0.80;0.80;;;28.00;85.50;;;;;;5062706;28;20471;-79
2021/07/09 06:55:13;;;;;;;0.75;0.75;;;28.10;85.60;;;;;;5071518;28;20135;-80
2021/07/09 06:57:45;;;;;;;0.60;0.60;;;28.10;85.50;;;;;;5071560;28;20029;-80
2021/07/09 07:00:12;;;;;;;36.17;2.35;;;28.20;85.40;;;;;;5071500;28;20032;-78
2021/07/09 07:02:38;;;;;;;1.13;0.90;;;28.10;84.70;;;;;;5071205;28;20055;-81
2021/07/09 07:05:04;;;;;;;1.33;1.23;;;28.10;84.90;;;;;;5071255;28;20400;-79
2021/07/09 07:07:30;;;;;;;1.30;1.15;;;28.10;84.30;;;;;;5070925;28;20071;-79
2021/07/09 07:09:56;;;;;;;0.77;0.77;;;28.10;84.60;;;;;;5071737;28;20064;-80
2021/07/09 07:12:22;;;;;;;0.60;0.60;;;28.00;85.00;;;;;;5071130;28;20028;-79
2021/07/09 07:14:47;;;;;;;3.25;1.27;;;28.00;85.30;;;;;;5071310;28;20446;-80
2021/07/09 07:17:16;;;;;;;1.30;1.15;;;28.10;85.40;;;;;;5071554;28;20033;-79
2021/07/09 07:19:41;;;;;;;0.40;0.40;;;28.20;85.20;;;;;;5070997;28;20063;-81
2021/07/09 07:22:07;;;;;;;0.60;0.60;;;28.30;84.80;;;;;;5070984;28;20119;-78
2021/07/09 07:24:33;;;;;;;0.82;0.82;;;28.30;85.10;;;;;;5053592;28;20040;-80
2021/07/09 07:26:59;;;;;;;0.70;0.70;;;28.40;84.60;;;;;;5071059;28;20521;-80
2021/07/09 07:29:25;;;;;;;0.90;0.68;;;28.40;85.00;;;;;;5071074;28;20107;-78
2021/07/09 07:31:51;;;;;;;1.48;1.02;;;28.40;85.90;;;;;;5071553;28;20024;-77
2021/07/09 07:34:17;;;;;;;1.25;0.88;;;28.40;86.90;;;;;;5071002;28;20031;-80
2021/07/09 07:36:43;;;;;;;0.75;0.75;;;28.60;86.50;;;;;;5071416;28;20032;-79
2021/07/09 07:39:10;;;;;;;0.93;0.88;;;28.70;85.80;;;;;;5070952;28;20032;-78
2021/07/09 07:41:37;;;;;;;0.60;0.60;;;28.70;84.80;;;;;;5070901;28;20044;-82
2021/07/09 07:44:04;;;;;;;0.57;0.57;;;28.60;83.60;;;;;;5070896;28;20089;-81
2021/07/09 07:46:30;;;;;;;4.22;2.80;;;28.40;83.60;;;;;;5071396;28;20059;-81
2021/07/09 07:48:56;;;;;;;0.73;0.70;;;28.60;84.60;;;;;;5070512;28;20028;-80
2021/07/09 07:51:23;;;;;;;0.63;0.63;;;28.60;84.50;;;;;;5071242;28;20037;-80
2021/07/09 07:53:50;;;;;;;0.80;0.80;;;28.70;84.20;;;;;;5052281;28;20037;-80
2021/07/09 07:56:17;;;;;;;1.70;1.55;;;28.90;84.30;;;;;;5033373;28;20063;-80
2021/07/09 07:58:43;;;;;;;1.58;0.98;;;28.90;83.90;;;;;;5050827;28;20396;-80
2021/07/09 08:01:10;;;;;;;0.50;0.50;;;29.00;84.40;;;;;;5051192;28;20477;-79
2021/07/09 08:03:37;;;;;;;0.82;0.75;;;29.00;85.70;;;;;;5050658;28;20017;-78
2021/07/09 08:06:04;;;;;;;0.52;0.52;;;29.10;86.10;;;;;;5051143;28;20045;-80
2021/07/09 08:08:30;;;;;;;2.47;1.17;;;29.10;87.20;;;;;;5053744;28;20064;-80
2021/07/09 08:10:56;;;;;;;1.17;1.08;;;29.10;86.40;;;;;;5054668;28;20536;-77
2021/07/09 08:13:22;;;;;;;3.80;1.27;;;29.00;87.00;;;;;;5054734;28;20176;-80
2021/07/09 08:15:47;;;;;;;1.52;1.17;;;29.10;86.90;;;;;;5054890;28;20362;-78
2021/07/09 08:18:13;;;;;;;1.02;0.85;;;29.00;86.40;;;;;;5054524;28;20052;-79
2021/07/09 08:20:40;;;;;;;1.10;1.00;;;29.00;87.10;;;;;;5054459;28;20034;-80
2021/07/09 08:23:06;;;;;;;0.57;0.57;;;29.10;86.90;;;;;;5054312;28;20053;-81
2021/07/09 08:25:32;;;;;;;1.70;1.20;;;29.30;86.50;;;;;;5054847;28;20028;-80
2021/07/09 08:27:58;;;;;;;1.10;0.98;;;29.40;86.10;;;;;;5054399;28;20033;-79
2021/07/09 08:30:24;;;;;;;0.50;0.50;;;29.40;86.50;;;;;;5054632;28;20028;-79
2021/07/09 08:32:50;;;;;;;0.52;0.52;;;29.40;86.20;;;;;;5053986;28;20033;-80
2021/07/09 08:35:15;;;;;;;0.85;0.77;;;29.50;85.50;;;;;;5054314;28;20070;-80
2021/07/09 08:37:42;;;;;;;0.60;0.60;;;29.60;84.60;;;;;;5054432;28;20087;-80
2021/07/09 08:40:08;;;;;;;0.50;0.50;;;29.70;83.90;;;;;;5054194;28;20040;-81
2021/07/09 08:42:36;;;;;;;0.70;0.70;;;29.70;83.10;;;;;;5053931;28;20454;-79
2021/07/09 08:45:02;;;;;;;1.45;1.05;;;29.60;82.20;;;;;;5054207;28;20048;-82
2021/07/09 08:47:29;;;;;;;1.17;1.08;;;29.70;82.80;;;;;;5054295;28;20029;-79
2021/07/09 08:49:55;;;;;;;1.50;1.40;;;29.70;81.10;;;;;;5053559;28;20029;-80
2021/07/09 08:52:21;;;;;;;0.63;0.63;;;29.60;81.40;;;;;;5040733;28;20388;-80
2021/07/09 08:54:46;;;;;;;1.88;1.70;;;29.80;81.50;;;;;;5074130;28;20468;-80
2021/07/09 08:57:15;;;;;;;0.55;0.55;;;29.70;80.60;;;;;;5073832;28;20437;-80
2021/07/09 08:59:41;;;;;;;0.60;0.60;;;29.70;79.80;;;;;;5073214;28;20400;-81
2021/07/09 09:02:07;;;;;;;0.90;0.90;;;30.00;79.60;;;;;;5074048;28;20488;-80
2021/07/09 09:04:36;;;;;;;0.50;0.50;;;30.00;79.20;;;;;;5073459;28;20041;-81
2021/07/09 09:07:07;;;;;;;0.63;0.63;;;30.00;78.60;;;;;;5055933;28;20040;-79
2021/07/09 09:09:35;;;;;;;0.80;0.75;;;30.10;78.50;;;;;;5076218;28;20052;-81
2021/07/09 09:12:05;;;;;;;0.60;0.60;;;30.50;77.90;;;;;;5055670;28;20078;-81
2021/07/09 09:14:33;;;;;;;0.77;0.70;;;30.70;77.40;;;;;;5073535;28;20119;-82
2021/07/09 09:16:59;;;;;;;1.63;0.93;;;30.90;76.40;;;;;;5055800;28;20035;-82
2021/07/09 09:19:25;;;;;;;17.13;1.20;;;31.20;76.10;;;;;;5054884;28;20029;-80
2021/07/09 09:22:11;;;;;;;1.58;1.02;;;31.10;75.80;;;;;;5073730;28;20049;-79
2021/07/09 09:24:38;;;;;;;0.55;0.55;;;31.10;76.00;;;;;;5073632;28;20188;-81
2021/07/09 09:27:18;;;;;;;1.73;1.05;;;31.20;76.90;;;;;;5073297;28;20446;-79
2021/07/09 09:29:43;;;;;;;;;;;31.50;75.70;;;;;;5073705;28;20103;-80
2021/07/09 09:32:10;;;;;;;0.55;0.55;;;31.80;74.10;;;;;;5072730;28;19991;-78
2021/07/09 09:34:47;;;;;;;0.52;0.52;;;31.90;72.80;;;;;;5054960;28;20028;-78
2021/07/09 09:37:17;;;;;;;0.47;0.47;;;32.10;72.60;;;;;;5073156;28;20036;-78
2021/07/09 09:39:45;;;;;;;1.73;1.20;;;31.90;71.50;;;;;;5073001;28;20033;-80
2021/07/09 09:42:19;;;;;;;0.60;0.60;;;31.90;70.30;;;;;;5073145;28;20040;-78
2021/07/09 09:44:51;;;;;;;0.60;0.55;;;32.00;70.10;;;;;;5072523;28;20373;-80
2021/07/09 09:47:22;;;;;;;0.68;0.63;;;32.50;70.50;;;;;;5073192;28;20090;-80
2021/07/09 09:49:53;;;;;;;0.90;0.65;;;32.70;70.00;;;;;;5072344;28;20115;-80
2021/07/09 09:52:39;;;;;;;0.73;0.68;;;32.80;69.90;;;;;;5069575;28;20115;-79
2021/07/09 09:55:13;;;;;;;1.38;0.75;;;33.00;69.40;;;;;;5052940;28;20037;-80
2021/07/09 09:57:40;;;;;;;1.35;1.00;;;32.90;67.60;;;;;;5052926;28;20120;-81
2021/07/09 10:00:09;;;;;;;0.93;0.88;;;32.80;67.50;;;;;;5052873;28;20029;-80
2021/07/09 10:02:36;;;;;;;0.30;0.30;;;32.90;67.30;;;;;;5052335;28;20044;-77
2021/07/09 10:05:03;;;;;;;0.40;0.40;;;33.20;65.40;;;;;;5052476;28;20442;-78
2021/07/09 10:07:32;;;;;;;1.05;0.95;;;33.40;65.20;;;;;;5052705;28;20059;-77
2021/07/09 10:09:59;;;;;;;0.68;0.63;;;33.50;65.40;;;;;;5052459;28;20037;-77
2021/07/09 10:12:27;;;;;;;0.77;0.52;;;33.80;65.20;;;;;;5034756;28;20033;-77
2021/07/09 10:14:54;;;;;;;0.38;0.38;;;33.90;64.60;;;;;;5052171;28;20033;-78
2021/07/09 10:17:25;;;;;;;0.40;0.40;;;33.80;65.00;;;;;;5052145;28;20025;-76
2021/07/09 10:19:54;;;;;;;0.68;0.65;;;33.40;65.10;;;;;;5052056;28;20079;-78
2021/07/09 10:22:20;;;;;;;1.55;1.30;;;33.70;64.60;;;;;;5052011;28;20033;-78
2021/07/09 10:24:49;;;;;;;0.77;0.70;;;33.60;64.20;;;;;;5052232;28;20056;-78
2021/07/09 10:27:20;;;;;;;0.37;0.37;;;33.90;64.00;;;;;;5052266;28;20112;-80
2021/07/09 10:29:47;;;;;;;0.90;0.73;;;34.00;63.90;;;;;;5051450;28;20021;-77
2021/07/09 10:32:50;;;;;;;0.40;0.40;;;34.10;63.70;;;;;;5033802;28;20414;-80
2021/07/09 10:35:37;;;;;;;0.88;0.70;;;34.30;63.00;;;;;;5051690;28;20025;-80
2021/07/09 10:38:11;;;;;;;0.65;0.65;;;34.20;62.70;;;;;;5034300;28;20496;-80
2021/07/09 10:40:37;;;;;;;1.23;0.73;;;34.00;62.90;;;;;;5051412;28;20108;-82
2021/07/09 10:43:05;;;;;;;0.47;0.47;;;34.00;62.80;;;;;;5052047;28;20044;-76
2021/07/09 10:45:31;;;;;;;0.60;0.60;;;33.80;63.60;;;;;;5052021;28;20075;-78
2021/07/09 10:48:03;;;;;;;0.40;0.40;;;33.80;63.20;;;;;;5051488;28;20067;-79
2021/07/09 10:50:51;;;;;;;0.93;0.80;;;33.80;62.10;;;;;;5051949;28;20032;-79
2021/07/09 10:53:20;;;;;;;0.88;0.70;;;34.00;61.90;;;;;;5061298;28;20037;-77
2021/07/09 10:55:52;;;;;;;0.50;0.50;;;34.10;62.70;;;;;;5071737;28;20414;-79
2021/07/09 10:58:45;;;;;;;0.90;0.65;;;34.40;60.80;;;;;;5053901;28;20043;-78
2021/07/09 11:01:15;;;;;;;0.85;0.60;;;34.30;61.30;;;;;;5067046;28;20078;-79
2021/07/09 11:03:49;;;;;;;0.40;0.40;;;34.40;60.40;;;;;;5071198;28;20025;-80
2021/07/09 11:06:33;;;;;;;0.68;0.55;;;34.80;58.80;;;;;;5071605;28;20020;-78
2021/07/09 11:09:03;;;;;;;0.65;0.50;;;34.90;58.40;;;;;;5071812;28;20041;-79
2021/07/09 11:11:30;;;;;;;;;;;34.90;58.80;;;;;;5053807;28;20035;-78
2021/07/09 11:14:22;;;;;;;0.30;0.30;;;35.10;58.80;;;;;;5071688;28;20271;-81
2021/07/09 11:17:00;;;;;;;0.20;0.20;;;35.40;57.90;;;;;;5053802;28;20040;-78
2021/07/09 11:19:31;;;;;;;1.65;1.50;;;35.40;58.00;;;;;;5052966;28;20509;-79
2021/07/09 11:22:01;;;;;;;0.30;0.30;;;35.40;57.90;;;;;;5053033;28;20048;-80
2021/07/09 11:24:29;;;;;;;;;;;35.40;57.80;;;;;;5053851;28;20043;-79
2021/07/09 11:27:04;;;;;;;0.60;0.60;;;35.60;57.90;;;;;;5071084;28;20275;-78
2021/07/09 11:29:44;;;;;;;0.88;0.63;;;35.70;57.00;;;;;;5071109;28;20102;-79
2021/07/09 11:32:22;;;;;;;0.65;0.50;;;35.50;56.30;;;;;;5070597;28;20052;-77
2021/07/09 11:34:52;;;;;;;0.85;0.60;;;35.20;56.60;;;;;;5071351;28;20035;-80
2021/07/09 11:37:20;;;;;;;3.00;0.90;;;35.20;56.90;;;;;;5071235;28;20107;-78
2021/07/09 11:39:54;;;;;;;0.68;0.68;;;35.60;56.50;;;;;;5071542;28;20115;-79
2021/07/09 11:42:25;;;;;;;1.17;0.77;;;35.30;56.90;;;;;;5071988;28;20400;-78
2021/07/09 11:44:58;;;;;;;0.65;0.50;;;35.50;56.60;;;;;;5074989;28;20028;-80
2021/07/09 11:47:28;;;;;;;2.08;1.08;;;35.40;56.60;;;;;;5075375;28;20029;-78
2021/07/09 11:50:12;;;;;;;0.28;0.28;;;35.20;56.30;;;;;;5074988;28;20029;-79
2021/07/09 11:52:40;;;;;;;0.98;0.63;;;34.90;55.90;;;;;;5054439;28;20633;-80
2021/07/09 11:55:12;;;;;;;0.45;0.45;;;35.20;56.00;;;;;;5054813;28;20037;-79
2021/07/09 11:57:42;;;;;;;0.82;0.73;;;35.70;55.90;;;;;;5054899;28;20036;-80
2021/07/09 12:00:09;;;;;;;;;;;35.80;55.40;;;;;;5037263;28;20452;-79
2021/07/09 12:02:35;;;;;;;0.70;0.60;;;35.80;54.90;;;;;;5036541;28;19964;-77
2021/07/09 12:05:06;;;;;;;0.45;0.45;;;36.00;54.10;;;;;;5055005;28;20388;-79
2021/07/09 12:07:45;;;;;;;1.17;0.68;;;36.00;54.50;;;;;;5054622;28;20065;-77
2021/07/09 12:10:13;;;;;;;0.97;0.87;;;35.80;53.80;;;;;;5054931;28;20065;-79
2021/07/09 12:12:42;;;;;;;0.47;0.45;;;36.00;52.70;;;;;;5054667;28;20032;-79
2021/07/09 12:15:08;;;;;;;;;;;36.20;53.00;;;;;;5054984;28;20069;-80
2021/07/09 12:17:37;;;;;;;0.45;0.45;;;36.50;53.20;;;;;;5054071;28;19953;-78
2021/07/09 12:20:07;;;;;;;1.40;0.68;;;36.60;53.10;;;;;;5054613;28;20381;-79
2021/07/09 12:22:34;;;;;;;;;;;36.80;52.30;;;;;;5054826;28;20461;-75
2021/07/09 12:25:02;;;;;;;0.32;0.32;;;36.80;51.30;;;;;;5054834;28;19912;-79
2021/07/09 12:27:31;;;;;;;0.40;0.40;;;36.70;51.60;;;;;;5054206;28;20086;-77
2021/07/09 12:29:58;;;;;;;0.77;0.77;;;36.80;52.00;;;;;;5054063;28;20036;-77
2021/07/09 12:32:24;;;;;;;0.30;0.30;;;36.80;51.40;;;;;;5054395;28;20069;-77
2021/07/09 12:35:08;;;;;;;0.40;0.40;;;36.80;51.10;;;;;;5054334;28;20065;-78
2021/07/09 12:37:34;;;;;;;0.20;0.20;;;36.80;51.00;;;;;;5054448;28;20385;-79
2021/07/09 12:40:15;;;;;;;1.75;0.63;;;37.10;50.60;;;;;;5054769;28;20036;-79
2021/07/09 12:42:41;;;;;;;0.52;0.47;;;36.70;50.50;;;;;;5053671;28;20457;-77
2021/07/09 12:45:08;;;;;;;2.15;0.68;;;36.60;51.00;;;;;;5054611;28;20029;-80
2021/07/09 12:47:46;;;;;;;0.25;0.25;;;36.70;50.70;;;;;;5054359;28;20431;-79
2021/07/09 12:50:16;;;;;;;0.50;0.50;;;36.80;50.60;;;;;;5054159;28;20017;-80
2021/07/09 12:52:42;;;;;;;0.82;0.63;;;37.00;50.00;;;;;;5055171;28;20036;-79